sensor_id;sensor_type;location;lat;lon;timestamp;P1;durP1;ratioP1;P2;durP2;ratioP2
15049;SDS011;7622;42.724;23.250;2022-09-25T00:00:33;10.60;;;9.50;;
15049;SDS011;7622;42.724;23.250;2022-09-25T00:03:00;9.13;;;8.30;;
15049;SDS011;7622;42.724;23.250;2022-09-25T00:05:27;11.33;;;9.00;;
15049;SDS011;7622;42.724;23.250;2022-09-25T00:07:54;15.53;;;9.07;;
15049;SDS011;7622;42.724;23.250;2022-09-25T00:10:22;9.70;;;8.70;;
15049;SDS011;7622;42.724;23.250;2022-09-25T00:12:49;11.43;;;8.90;;
15049;SDS011;7622;42.724;23.250;2022-09-25T00:15:16;12.73;;;9.00;;
15049;SDS011;7622;42.724;23.250;2022-09-25T00:17:43;17.80;;;9.80;;
15049;SDS011;7622;42.724;23.250;2022-09-25T00:20:10;12.63;;;9.43;;
15049;SDS011;7622;42.724;23.250;2022-09-25T00:22:36;10.60;;;8.50;;
15049;SDS011;7622;42.724;23.250;2022-09-25T00:25:03;9.40;;;8.40;;
15049;SDS011;7622;42.724;23.250;2022-09-25T00:27:32;12.20;;;8.77;;
15049;SDS011;7622;42.724;23.250;2022-09-25T00:29:59;10.30;;;9.30;;
15049;SDS011;7622;42.724;23.250;2022-09-25T00:32:25;11.87;;;8.60;;
15049;SDS011;7622;42.724;23.250;2022-09-25T00:34:52;10.20;;;8.57;;
15049;SDS011;7622;42.724;23.250;2022-09-25T00:37:19;14.23;;;9.10;;
15049;SDS011;7622;42.724;23.250;2022-09-25T00:39:46;12.43;;;7.73;;
15049;SDS011;7622;42.724;23.250;2022-09-25T00:42:13;11.13;;;8.50;;
15049;SDS011;7622;42.724;23.250;2022-09-25T00:47:41;9.37;;;8.37;;
15049;SDS011;7622;42.724;23.250;2022-09-25T00:50:14;9.13;;;7.90;;
15049;SDS011;7622;42.724;23.250;2022-09-25T00:52:48;8.77;;;7.87;;
15049;SDS011;7622;42.724;23.250;2022-09-25T00:55:15;12.93;;;8.97;;
15049;SDS011;7622;42.724;23.250;2022-09-25T00:57:43;9.80;;;8.50;;
15049;SDS011;7622;42.724;23.250;2022-09-25T01:00:15;9.03;;;8.10;;
15049;SDS011;7622;42.724;23.250;2022-09-25T01:02:43;9.23;;;8.23;;
15049;SDS011;7622;42.724;23.250;2022-09-25T01:05:13;10.73;;;7.80;;
15049;SDS011;7622;42.724;23.250;2022-09-25T01:07:43;9.17;;;8.20;;
15049;SDS011;7622;42.724;23.250;2022-09-25T01:10:13;9.33;;;7.70;;
15049;SDS011;7622;42.724;23.250;2022-09-25T01:12:42;10.53;;;7.87;;
15049;SDS011;7622;42.724;23.250;2022-09-25T01:15:13;8.63;;;7.73;;
15049;SDS011;7622;42.724;23.250;2022-09-25T01:17:44;13.87;;;7.43;;
15049;SDS011;7622;42.724;23.250;2022-09-25T01:20:23;11.40;;;7.40;;
15049;SDS011;7622;42.724;23.250;2022-09-25T01:23:15;10.93;;;7.97;;
15049;SDS011;7622;42.724;23.250;2022-09-25T01:25:58;11.90;;;8.10;;
15049;SDS011;7622;42.724;23.250;2022-09-25T01:28:58;10.47;;;7.77;;
15049;SDS011;7622;42.724;23.250;2022-09-25T01:31:33;10.33;;;7.80;;
15049;SDS011;7622;42.724;23.250;2022-09-25T01:34:07;8.50;;;7.67;;
15049;SDS011;7622;42.724;23.250;2022-09-25T01:36:44;10.50;;;7.70;;
15049;SDS011;7622;42.724;23.250;2022-09-25T01:39:16;12.00;;;8.87;;
15049;SDS011;7622;42.724;23.250;2022-09-25T01:41:48;9.70;;;7.70;;
15049;SDS011;7622;42.724;23.250;2022-09-25T01:44:21;9.73;;;7.67;;
15049;SDS011;7622;42.724;23.250;2022-09-25T01:46:53;8.87;;;7.27;;
15049;SDS011;7622;42.724;23.250;2022-09-25T01:49:25;7.83;;;7.13;;
15049;SDS011;7622;42.724;23.250;2022-09-25T01:51:56;10.83;;;7.87;;
15049;SDS011;7622;42.724;23.250;2022-09-25T01:54:28;12.87;;;7.97;;
15049;SDS011;7622;42.724;23.250;2022-09-25T01:56:58;9.20;;;8.07;;
15049;SDS011;7622;42.724;23.250;2022-09-25T01:59:35;8.57;;;7.67;;
15049;SDS011;7622;42.724;23.250;2022-09-25T02:02:06;12.47;;;7.90;;
15049;SDS011;7622;42.724;23.250;2022-09-25T02:04:38;9.40;;;8.33;;
15049;SDS011;7622;42.724;23.250;2022-09-25T02:07:09;9.17;;;8.27;;
15049;SDS011;7622;42.724;23.250;2022-09-25T02:09:43;10.97;;;8.17;;
15049;SDS011;7622;42.724;23.250;2022-09-25T02:12:14;9.40;;;7.80;;
15049;SDS011;7622;42.724;23.250;2022-09-25T02:14:46;10.17;;;7.60;;
15049;SDS011;7622;42.724;23.250;2022-09-25T02:17:17;8.80;;;7.87;;
15049;SDS011;7622;42.724;23.250;2022-09-25T02:20:03;10.23;;;8.37;;
15049;SDS011;7622;42.724;23.250;2022-09-25T02:22:48;8.43;;;7.60;;
15049;SDS011;7622;42.724;23.250;2022-09-25T02:25:18;9.13;;;7.77;;
15049;SDS011;7622;42.724;23.250;2022-09-25T02:27:51;11.33;;;8.60;;
15049;SDS011;7622;42.724;23.250;2022-09-25T02:30:19;9.47;;;8.07;;
15049;SDS011;7622;42.724;23.250;2022-09-25T02:32:46;8.40;;;7.57;;
15049;SDS011;7622;42.724;23.250;2022-09-25T02:35:12;8.33;;;7.50;;
15049;SDS011;7622;42.724;23.250;2022-09-25T02:37:40;14.10;;;7.67;;
15049;SDS011;7622;42.724;23.250;2022-09-25T02:40:07;10.60;;;7.90;;
15049;SDS011;7622;42.724;23.250;2022-09-25T02:42:37;8.57;;;7.77;;
15049;SDS011;7622;42.724;23.250;2022-09-25T02:45:11;10.43;;;8.37;;
15049;SDS011;7622;42.724;23.250;2022-09-25T02:47:56;11.60;;;7.80;;
15049;SDS011;7622;42.724;23.250;2022-09-25T02:50:34;10.90;;;8.40;;
15049;SDS011;7622;42.724;23.250;2022-09-25T02:53:09;10.43;;;8.70;;
15049;SDS011;7622;42.724;23.250;2022-09-25T02:55:43;7.80;;;7.20;;
15049;SDS011;7622;42.724;23.250;2022-09-25T02:58:14;10.20;;;7.50;;
15049;SDS011;7622;42.724;23.250;2022-09-25T03:00:46;9.97;;;7.37;;
15049;SDS011;7622;42.724;23.250;2022-09-25T03:03:16;8.83;;;7.93;;
15049;SDS011;7622;42.724;23.250;2022-09-25T03:05:45;8.60;;;7.47;;
15049;SDS011;7622;42.724;23.250;2022-09-25T03:08:14;9.47;;;8.20;;
15049;SDS011;7622;42.724;23.250;2022-09-25T03:10:59;9.27;;;7.07;;
15049;SDS011;7622;42.724;23.250;2022-09-25T03:13:26;9.33;;;7.90;;
15049;SDS011;7622;42.724;23.250;2022-09-25T03:15:58;9.90;;;7.30;;
15049;SDS011;7622;42.724;23.250;2022-09-25T03:18:27;8.40;;;7.60;;
15049;SDS011;7622;42.724;23.250;2022-09-25T03:20:55;8.07;;;6.97;;
15049;SDS011;7622;42.724;23.250;2022-09-25T03:23:22;9.50;;;7.13;;
15049;SDS011;7622;42.724;23.250;2022-09-25T03:25:51;8.27;;;7.53;;
15049;SDS011;7622;42.724;23.250;2022-09-25T03:28:19;7.73;;;6.93;;
15049;SDS011;7622;42.724;23.250;2022-09-25T03:30:53;7.60;;;6.90;;
15049;SDS011;7622;42.724;23.250;2022-09-25T03:33:24;8.10;;;7.30;;
15049;SDS011;7622;42.724;23.250;2022-09-25T03:36:01;9.33;;;8.43;;
15049;SDS011;7622;42.724;23.250;2022-09-25T03:38:30;9.00;;;7.97;;
15049;SDS011;7622;42.724;23.250;2022-09-25T03:40:57;10.20;;;8.00;;
15049;SDS011;7622;42.724;23.250;2022-09-25T03:43:24;11.77;;;8.23;;
15049;SDS011;7622;42.724;23.250;2022-09-25T03:45:51;9.07;;;8.17;;
15049;SDS011;7622;42.724;23.250;2022-09-25T03:48:18;8.87;;;7.70;;
15049;SDS011;7622;42.724;23.250;2022-09-25T03:50:46;8.97;;;8.07;;
15049;SDS011;7622;42.724;23.250;2022-09-25T03:53:13;9.80;;;8.03;;
15049;SDS011;7622;42.724;23.250;2022-09-25T03:55:40;9.63;;;8.63;;
15049;SDS011;7622;42.724;23.250;2022-09-25T03:58:06;10.53;;;8.03;;
15049;SDS011;7622;42.724;23.250;2022-09-25T04:00:34;9.10;;;7.73;;
15049;SDS011;7622;42.724;23.250;2022-09-25T04:03:01;9.33;;;8.20;;
15049;SDS011;7622;42.724;23.250;2022-09-25T04:05:28;11.27;;;8.70;;
15049;SDS011;7622;42.724;23.250;2022-09-25T04:07:56;8.33;;;7.53;;
15049;SDS011;7622;42.724;23.250;2022-09-25T04:10:25;16.73;;;8.20;;
15049;SDS011;7622;42.724;23.250;2022-09-25T04:12:52;11.43;;;9.10;;
15049;SDS011;7622;42.724;23.250;2022-09-25T04:15:19;11.73;;;8.43;;
15049;SDS011;7622;42.724;23.250;2022-09-25T04:17:47;12.50;;;8.87;;
15049;SDS011;7622;42.724;23.250;2022-09-25T04:20:14;9.67;;;8.47;;
15049;SDS011;7622;42.724;23.250;2022-09-25T04:22:41;11.83;;;8.83;;
15049;SDS011;7622;42.724;23.250;2022-09-25T04:25:09;11.00;;;8.03;;
15049;SDS011;7622;42.724;23.250;2022-09-25T04:27:36;10.40;;;8.33;;
15049;SDS011;7622;42.724;23.250;2022-09-25T04:30:03;16.50;;;9.57;;
15049;SDS011;7622;42.724;23.250;2022-09-25T04:32:31;16.40;;;8.50;;
15049;SDS011;7622;42.724;23.250;2022-09-25T04:35:15;10.40;;;8.13;;
15049;SDS011;7622;42.724;23.250;2022-09-25T04:37:42;12.20;;;7.97;;
15049;SDS011;7622;42.724;23.250;2022-09-25T04:40:10;9.93;;;8.47;;
15049;SDS011;7622;42.724;23.250;2022-09-25T04:42:37;8.53;;;7.50;;
15049;SDS011;7622;42.724;23.250;2022-09-25T04:45:07;12.13;;;8.33;;
15049;SDS011;7622;42.724;23.250;2022-09-25T04:47:34;12.37;;;8.27;;
15049;SDS011;7622;42.724;23.250;2022-09-25T04:50:00;10.73;;;8.60;;
15049;SDS011;7622;42.724;23.250;2022-09-25T04:52:27;17.93;;;8.80;;
15049;SDS011;7622;42.724;23.250;2022-09-25T04:54:55;15.40;;;9.47;;
15049;SDS011;7622;42.724;23.250;2022-09-25T04:57:24;12.60;;;9.43;;
15049;SDS011;7622;42.724;23.250;2022-09-25T04:59:51;17.13;;;8.90;;
15049;SDS011;7622;42.724;23.250;2022-09-25T05:02:18;14.53;;;8.83;;
15049;SDS011;7622;42.724;23.250;2022-09-25T05:04:44;12.63;;;9.43;;
15049;SDS011;7622;42.724;23.250;2022-09-25T05:07:12;13.93;;;8.87;;
15049;SDS011;7622;42.724;23.250;2022-09-25T05:09:38;12.87;;;8.93;;
15049;SDS011;7622;42.724;23.250;2022-09-25T05:12:05;10.83;;;8.63;;
15049;SDS011;7622;42.724;23.250;2022-09-25T05:14:33;12.90;;;8.27;;
15049;SDS011;7622;42.724;23.250;2022-09-25T05:17:00;18.10;;;8.40;;
15049;SDS011;7622;42.724;23.250;2022-09-25T05:19:27;11.93;;;8.43;;
15049;SDS011;7622;42.724;23.250;2022-09-25T05:21:54;11.53;;;8.30;;
15049;SDS011;7622;42.724;23.250;2022-09-25T05:24:20;9.50;;;8.00;;
15049;SDS011;7622;42.724;23.250;2022-09-25T05:26:47;9.27;;;8.13;;
15049;SDS011;7622;42.724;23.250;2022-09-25T05:29:14;11.80;;;9.17;;
15049;SDS011;7622;42.724;23.250;2022-09-25T05:31:42;14.07;;;8.73;;
15049;SDS011;7622;42.724;23.250;2022-09-25T05:34:12;10.87;;;8.90;;
15049;SDS011;7622;42.724;23.250;2022-09-25T05:36:38;11.50;;;9.17;;
15049;SDS011;7622;42.724;23.250;2022-09-25T05:39:05;9.63;;;8.30;;
15049;SDS011;7622;42.724;23.250;2022-09-25T05:41:34;11.77;;;9.10;;
15049;SDS011;7622;42.724;23.250;2022-09-25T05:44:00;14.50;;;9.13;;
15049;SDS011;7622;42.724;23.250;2022-09-25T05:46:30;14.53;;;9.53;;
15049;SDS011;7622;42.724;23.250;2022-09-25T05:48:59;15.83;;;9.37;;
15049;SDS011;7622;42.724;23.250;2022-09-25T05:51:26;14.60;;;9.93;;
15049;SDS011;7622;42.724;23.250;2022-09-25T05:53:53;11.87;;;8.93;;
15049;SDS011;7622;42.724;23.250;2022-09-25T05:56:20;13.93;;;9.07;;
15049;SDS011;7622;42.724;23.250;2022-09-25T05:58:48;10.43;;;9.40;;
15049;SDS011;7622;42.724;23.250;2022-09-25T06:01:15;10.20;;;8.60;;
15049;SDS011;7622;42.724;23.250;2022-09-25T06:03:45;13.20;;;9.77;;
15049;SDS011;7622;42.724;23.250;2022-09-25T06:06:15;9.80;;;8.80;;
15049;SDS011;7622;42.724;23.250;2022-09-25T06:08:42;12.07;;;8.83;;
15049;SDS011;7622;42.724;23.250;2022-09-25T06:11:08;11.77;;;9.20;;
15049;SDS011;7622;42.724;23.250;2022-09-25T06:13:37;12.37;;;8.53;;
15049;SDS011;7622;42.724;23.250;2022-09-25T06:16:10;14.67;;;9.20;;
15049;SDS011;7622;42.724;23.250;2022-09-25T06:18:39;12.67;;;9.30;;
15049;SDS011;7622;42.724;23.250;2022-09-25T06:21:07;10.00;;;9.00;;
15049;SDS011;7622;42.724;23.250;2022-09-25T06:23:35;11.30;;;8.43;;
15049;SDS011;7622;42.724;23.250;2022-09-25T06:26:02;11.23;;;9.07;;
15049;SDS011;7622;42.724;23.250;2022-09-25T06:28:31;10.17;;;7.60;;
15049;SDS011;7622;42.724;23.250;2022-09-25T06:30:58;17.90;;;8.83;;
15049;SDS011;7622;42.724;23.250;2022-09-25T06:33:26;13.23;;;8.30;;
15049;SDS011;7622;42.724;23.250;2022-09-25T06:35:52;13.80;;;8.50;;
15049;SDS011;7622;42.724;23.250;2022-09-25T06:38:19;14.27;;;8.83;;
15049;SDS011;7622;42.724;23.250;2022-09-25T06:40:47;15.87;;;7.83;;
15049;SDS011;7622;42.724;23.250;2022-09-25T06:43:14;11.17;;;8.77;;
15049;SDS011;7622;42.724;23.250;2022-09-25T06:45:42;11.40;;;8.63;;
15049;SDS011;7622;42.724;23.250;2022-09-25T06:48:12;24.53;;;8.93;;
15049;SDS011;7622;42.724;23.250;2022-09-25T06:50:41;11.00;;;8.33;;
15049;SDS011;7622;42.724;23.250;2022-09-25T06:53:10;8.43;;;7.10;;
15049;SDS011;7622;42.724;23.250;2022-09-25T06:55:38;10.03;;;7.90;;
15049;SDS011;7622;42.724;23.250;2022-09-25T06:58:08;11.80;;;8.43;;
15049;SDS011;7622;42.724;23.250;2022-09-25T07:00:36;15.97;;;8.67;;
15049;SDS011;7622;42.724;23.250;2022-09-25T07:03:03;13.33;;;9.07;;
15049;SDS011;7622;42.724;23.250;2022-09-25T07:05:47;15.53;;;8.40;;
15049;SDS011;7622;42.724;23.250;2022-09-25T07:08:15;12.33;;;7.87;;
15049;SDS011;7622;42.724;23.250;2022-09-25T07:10:48;7.93;;;7.17;;
15049;SDS011;7622;42.724;23.250;2022-09-25T07:13:17;8.63;;;7.10;;
15049;SDS011;7622;42.724;23.250;2022-09-25T07:15:51;7.97;;;7.27;;
15049;SDS011;7622;42.724;23.250;2022-09-25T07:18:19;18.47;;;7.37;;
15049;SDS011;7622;42.724;23.250;2022-09-25T07:20:46;15.40;;;7.10;;
15049;SDS011;7622;42.724;23.250;2022-09-25T07:23:13;7.53;;;5.53;;
15049;SDS011;7622;42.724;23.250;2022-09-25T07:25:41;15.33;;;5.37;;
15049;SDS011;7622;42.724;23.250;2022-09-25T07:28:08;27.10;;;6.90;;
15049;SDS011;7622;42.724;23.250;2022-09-25T07:30:38;5.97;;;5.40;;
15049;SDS011;7622;42.724;23.250;2022-09-25T07:33:05;5.03;;;4.60;;
15049;SDS011;7622;42.724;23.250;2022-09-25T07:35:32;11.10;;;5.70;;
15049;SDS011;7622;42.724;23.250;2022-09-25T07:38:00;4.73;;;4.43;;
15049;SDS011;7622;42.724;23.250;2022-09-25T07:40:27;5.50;;;4.93;;
15049;SDS011;7622;42.724;23.250;2022-09-25T07:42:57;5.83;;;5.13;;
15049;SDS011;7622;42.724;23.250;2022-09-25T07:45:24;10.10;;;5.33;;
15049;SDS011;7622;42.724;23.250;2022-09-25T07:47:55;8.00;;;5.17;;
15049;SDS011;7622;42.724;23.250;2022-09-25T07:50:22;5.67;;;5.13;;
15049;SDS011;7622;42.724;23.250;2022-09-25T07:52:48;8.40;;;4.90;;
15049;SDS011;7622;42.724;23.250;2022-09-25T07:55:15;5.60;;;5.17;;
15049;SDS011;7622;42.724;23.250;2022-09-25T07:57:42;7.00;;;5.73;;
15049;SDS011;7622;42.724;23.250;2022-09-25T08:00:09;7.23;;;5.17;;
15049;SDS011;7622;42.724;23.250;2022-09-25T08:02:37;7.90;;;4.60;;
15049;SDS011;7622;42.724;23.250;2022-09-25T08:05:06;6.27;;;5.53;;
15049;SDS011;7622;42.724;23.250;2022-09-25T08:07:33;7.07;;;5.03;;
15049;SDS011;7622;42.724;23.250;2022-09-25T08:10:00;15.63;;;5.90;;
15049;SDS011;7622;42.724;23.250;2022-09-25T08:12:27;6.63;;;5.47;;
15049;SDS011;7622;42.724;23.250;2022-09-25T08:14:53;7.07;;;5.23;;
15049;SDS011;7622;42.724;23.250;2022-09-25T08:17:20;7.33;;;5.00;;
15049;SDS011;7622;42.724;23.250;2022-09-25T08:19:47;13.47;;;6.70;;
15049;SDS011;7622;42.724;23.250;2022-09-25T08:22:16;9.40;;;5.40;;
15049;SDS011;7622;42.724;23.250;2022-09-25T08:24:42;46.00;;;7.97;;
15049;SDS011;7622;42.724;23.250;2022-09-25T08:27:09;21.73;;;8.20;;
15049;SDS011;7622;42.724;23.250;2022-09-25T08:29:36;11.17;;;5.17;;
15049;SDS011;7622;42.724;23.250;2022-09-25T08:32:03;9.60;;;5.37;;
15049;SDS011;7622;42.724;23.250;2022-09-25T08:34:30;9.53;;;5.60;;
15049;SDS011;7622;42.724;23.250;2022-09-25T08:36:57;9.80;;;5.60;;
15049;SDS011;7622;42.724;23.250;2022-09-25T08:39:25;7.87;;;5.83;;
15049;SDS011;7622;42.724;23.250;2022-09-25T08:41:52;6.70;;;6.10;;
15049;SDS011;7622;42.724;23.250;2022-09-25T08:44:23;12.13;;;6.27;;
15049;SDS011;7622;42.724;23.250;2022-09-25T08:46:54;10.27;;;5.03;;
15049;SDS011;7622;42.724;23.250;2022-09-25T08:49:44;16.90;;;6.73;;
15049;SDS011;7622;42.724;23.250;2022-09-25T08:52:15;8.83;;;5.60;;
15049;SDS011;7622;42.724;23.250;2022-09-25T08:54:46;7.80;;;5.40;;
15049;SDS011;7622;42.724;23.250;2022-09-25T08:57:17;7.03;;;5.20;;
15049;SDS011;7622;42.724;23.250;2022-09-25T08:59:52;7.60;;;6.80;;
15049;SDS011;7622;42.724;23.250;2022-09-25T09:02:21;10.50;;;5.17;;
15049;SDS011;7622;42.724;23.250;2022-09-25T09:04:53;6.13;;;4.77;;
15049;SDS011;7622;42.724;23.250;2022-09-25T09:07:23;5.80;;;4.47;;
15049;SDS011;7622;42.724;23.250;2022-09-25T09:10:03;5.23;;;4.70;;
15049;SDS011;7622;42.724;23.250;2022-09-25T09:12:35;5.50;;;5.00;;
15049;SDS011;7622;42.724;23.250;2022-09-25T09:15:15;4.70;;;4.27;;
15049;SDS011;7622;42.724;23.250;2022-09-25T09:17:48;9.30;;;5.63;;
15049;SDS011;7622;42.724;23.250;2022-09-25T09:20:17;7.03;;;4.77;;
15049;SDS011;7622;42.724;23.250;2022-09-25T09:22:49;6.07;;;4.80;;
15049;SDS011;7622;42.724;23.250;2022-09-25T09:25:23;8.77;;;5.10;;
15049;SDS011;7622;42.724;23.250;2022-09-25T09:28:01;5.53;;;4.67;;
15049;SDS011;7622;42.724;23.250;2022-09-25T09:30:36;9.87;;;5.23;;
15049;SDS011;7622;42.724;23.250;2022-09-25T09:33:31;8.83;;;4.40;;
15049;SDS011;7622;42.724;23.250;2022-09-25T09:36:14;8.43;;;4.30;;
15049;SDS011;7622;42.724;23.250;2022-09-25T09:38:52;6.47;;;4.50;;
15049;SDS011;7622;42.724;23.250;2022-09-25T09:41:32;10.60;;;6.37;;
15049;SDS011;7622;42.724;23.250;2022-09-25T09:44:12;6.23;;;4.17;;
15049;SDS011;7622;42.724;23.250;2022-09-25T09:46:49;4.23;;;3.70;;
15049;SDS011;7622;42.724;23.250;2022-09-25T09:49:26;19.90;;;5.17;;
15049;SDS011;7622;42.724;23.250;2022-09-25T09:51:58;3.90;;;3.60;;
15049;SDS011;7622;42.724;23.250;2022-09-25T09:54:29;4.30;;;3.90;;
15049;SDS011;7622;42.724;23.250;2022-09-25T09:57:04;4.30;;;4.00;;
15049;SDS011;7622;42.724;23.250;2022-09-25T09:59:40;4.10;;;3.70;;
15049;SDS011;7622;42.724;23.250;2022-09-25T10:02:14;5.60;;;3.77;;
15049;SDS011;7622;42.724;23.250;2022-09-25T10:04:52;4.07;;;3.77;;
15049;SDS011;7622;42.724;23.250;2022-09-25T10:07:21;3.83;;;3.37;;
15049;SDS011;7622;42.724;23.250;2022-09-25T10:09:48;3.60;;;3.40;;
15049;SDS011;7622;42.724;23.250;2022-09-25T10:12:22;3.93;;;3.40;;
15049;SDS011;7622;42.724;23.250;2022-09-25T10:14:54;4.50;;;4.10;;
15049;SDS011;7622;42.724;23.250;2022-09-25T10:17:23;6.27;;;3.67;;
15049;SDS011;7622;42.724;23.250;2022-09-25T10:19:53;3.70;;;3.33;;
15049;SDS011;7622;42.724;23.250;2022-09-25T10:22:24;3.73;;;3.43;;
15049;SDS011;7622;42.724;23.250;2022-09-25T10:24:54;7.07;;;3.50;;
15049;SDS011;7622;42.724;23.250;2022-09-25T10:27:28;3.92;;;3.50;;
15049;SDS011;7622;42.724;23.250;2022-09-25T10:30:00;4.37;;;3.77;;
15049;SDS011;7622;42.724;23.250;2022-09-25T10:32:28;3.53;;;3.27;;
15049;SDS011;7622;42.724;23.250;2022-09-25T10:34:55;3.97;;;3.67;;
15049;SDS011;7622;42.724;23.250;2022-09-25T10:37:22;3.50;;;3.20;;
15049;SDS011;7622;42.724;23.250;2022-09-25T10:39:59;3.80;;;3.23;;
15049;SDS011;7622;42.724;23.250;2022-09-25T10:42:35;5.67;;;3.37;;
15049;SDS011;7622;42.724;23.250;2022-09-25T10:45:14;3.73;;;3.43;;
15049;SDS011;7622;42.724;23.250;2022-09-25T10:47:51;6.33;;;3.63;;
15049;SDS011;7622;42.724;23.250;2022-09-25T10:50:35;4.33;;;3.87;;
15049;SDS011;7622;42.724;23.250;2022-09-25T10:53:02;4.37;;;2.93;;
15049;SDS011;7622;42.724;23.250;2022-09-25T10:55:32;3.23;;;2.90;;
15049;SDS011;7622;42.724;23.250;2022-09-25T10:58:05;3.77;;;3.47;;
15049;SDS011;7622;42.724;23.250;2022-09-25T11:00:40;4.90;;;3.67;;
15049;SDS011;7622;42.724;23.250;2022-09-25T11:03:17;4.50;;;4.13;;
15049;SDS011;7622;42.724;23.250;2022-09-25T11:05:49;3.83;;;3.53;;
15049;SDS011;7622;42.724;23.250;2022-09-25T11:08:19;3.67;;;3.33;;
15049;SDS011;7622;42.724;23.250;2022-09-25T11:10:49;4.40;;;3.00;;
15049;SDS011;7622;42.724;23.250;2022-09-25T11:13:23;4.57;;;3.10;;
15049;SDS011;7622;42.724;23.250;2022-09-25T11:15:55;5.13;;;3.20;;
15049;SDS011;7622;42.724;23.250;2022-09-25T11:18:32;5.40;;;3.27;;
15049;SDS011;7622;42.724;23.250;2022-09-25T11:21:01;3.87;;;3.57;;
15049;SDS011;7622;42.724;23.250;2022-09-25T11:23:31;8.07;;;3.00;;
15049;SDS011;7622;42.724;23.250;2022-09-25T11:26:04;2.73;;;2.50;;
15049;SDS011;7622;42.724;23.250;2022-09-25T11:28:36;5.10;;;2.70;;
15049;SDS011;7622;42.724;23.250;2022-09-25T11:31:10;3.73;;;2.67;;
15049;SDS011;7622;42.724;23.250;2022-09-25T11:33:44;4.80;;;2.83;;
15049;SDS011;7622;42.724;23.250;2022-09-25T11:36:16;2.50;;;2.27;;
15049;SDS011;7622;42.724;23.250;2022-09-25T11:38:47;5.67;;;2.00;;
15049;SDS011;7622;42.724;23.250;2022-09-25T11:41:37;3.00;;;2.37;;
15049;SDS011;7622;42.724;23.250;2022-09-25T11:44:12;7.47;;;2.33;;
15049;SDS011;7622;42.724;23.250;2022-09-25T11:46:48;6.70;;;2.33;;
15049;SDS011;7622;42.724;23.250;2022-09-25T11:49:24;3.90;;;2.20;;
15049;SDS011;7622;42.724;23.250;2022-09-25T11:52:19;4.00;;;2.60;;
15049;SDS011;7622;42.724;23.250;2022-09-25T11:55:02;2.30;;;2.20;;
15049;SDS011;7622;42.724;23.250;2022-09-25T11:57:42;5.70;;;2.50;;
15049;SDS011;7622;42.724;23.250;2022-09-25T12:00:23;3.60;;;2.40;;
15049;SDS011;7622;42.724;23.250;2022-09-25T12:03:05;2.10;;;1.90;;
15049;SDS011;7622;42.724;23.250;2022-09-25T12:06:02;2.03;;;1.93;;
15049;SDS011;7622;42.724;23.250;2022-09-25T12:08:46;4.83;;;1.80;;
15049;SDS011;7622;42.724;23.250;2022-09-25T12:11:29;2.43;;;1.70;;
15049;SDS011;7622;42.724;23.250;2022-09-25T12:14:10;2.43;;;1.90;;
15049;SDS011;7622;42.724;23.250;2022-09-25T12:16:47;2.40;;;1.90;;
15049;SDS011;7622;42.724;23.250;2022-09-25T12:19:26;2.80;;;2.50;;
15049;SDS011;7622;42.724;23.250;2022-09-25T12:22:05;3.20;;;2.27;;
15049;SDS011;7622;42.724;23.250;2022-09-25T12:24:44;4.57;;;1.90;;
15049;SDS011;7622;42.724;23.250;2022-09-25T12:27:22;2.20;;;2.10;;
15049;SDS011;7622;42.724;23.250;2022-09-25T12:30:13;1.87;;;1.70;;
15049;SDS011;7622;42.724;23.250;2022-09-25T12:32:49;5.13;;;1.83;;
15049;SDS011;7622;42.724;23.250;2022-09-25T12:35:33;2.27;;;2.07;;
15049;SDS011;7622;42.724;23.250;2022-09-25T12:38:08;2.93;;;1.80;;
15049;SDS011;7622;42.724;23.250;2022-09-25T12:40:41;2.27;;;2.10;;
15049;SDS011;7622;42.724;23.250;2022-09-25T12:43:14;2.53;;;2.00;;
15049;SDS011;7622;42.724;23.250;2022-09-25T12:45:48;1.90;;;1.80;;
15049;SDS011;7622;42.724;23.250;2022-09-25T12:48:23;2.70;;;1.90;;
15049;SDS011;7622;42.724;23.250;2022-09-25T12:50:56;2.10;;;2.00;;
15049;SDS011;7622;42.724;23.250;2022-09-25T12:53:28;2.27;;;2.07;;
15049;SDS011;7622;42.724;23.250;2022-09-25T12:56:01;2.43;;;2.30;;
15049;SDS011;7622;42.724;23.250;2022-09-25T12:58:40;2.30;;;2.20;;
15049;SDS011;7622;42.724;23.250;2022-09-25T13:01:14;4.93;;;2.03;;
15049;SDS011;7622;42.724;23.250;2022-09-25T13:03:49;3.97;;;2.00;;
15049;SDS011;7622;42.724;23.250;2022-09-25T13:06:24;1.60;;;1.57;;
15049;SDS011;7622;42.724;23.250;2022-09-25T13:09:00;2.17;;;2.07;;
15049;SDS011;7622;42.724;23.250;2022-09-25T13:11:39;2.10;;;2.00;;
15049;SDS011;7622;42.724;23.250;2022-09-25T13:14:14;8.03;;;2.00;;
15049;SDS011;7622;42.724;23.250;2022-09-25T13:16:52;3.37;;;1.80;;
15049;SDS011;7622;42.724;23.250;2022-09-25T13:19:25;2.40;;;2.20;;
15049;SDS011;7622;42.724;23.250;2022-09-25T13:21:57;3.33;;;2.03;;
15049;SDS011;7622;42.724;23.250;2022-09-25T13:24:26;4.07;;;2.00;;
15049;SDS011;7622;42.724;23.250;2022-09-25T13:26:54;2.00;;;1.90;;
15049;SDS011;7622;42.724;23.250;2022-09-25T13:29:27;5.37;;;2.40;;
15049;SDS011;7622;42.724;23.250;2022-09-25T13:32:03;2.10;;;1.90;;
15049;SDS011;7622;42.724;23.250;2022-09-25T13:34:34;1.97;;;1.87;;
15049;SDS011;7622;42.724;23.250;2022-09-25T13:37:04;2.10;;;2.00;;
15049;SDS011;7622;42.724;23.250;2022-09-25T13:39:34;2.27;;;2.10;;
15049;SDS011;7622;42.724;23.250;2022-09-25T13:42:21;2.27;;;2.13;;
15049;SDS011;7622;42.724;23.250;2022-09-25T13:44:58;4.20;;;2.20;;
15049;SDS011;7622;42.724;23.250;2022-09-25T13:53:51;3.07;;;2.30;;
15049;SDS011;7622;42.724;23.250;2022-09-25T13:56:23;2.40;;;2.20;;
15049;SDS011;7622;42.724;23.250;2022-09-25T14:01:55;2.47;;;2.20;;
15049;SDS011;7622;42.724;23.250;2022-09-25T14:04:28;3.43;;;2.10;;
15049;SDS011;7622;42.724;23.250;2022-09-25T14:07:03;2.20;;;1.93;;
15049;SDS011;7622;42.724;23.250;2022-09-25T14:09:33;2.23;;;2.03;;
15049;SDS011;7622;42.724;23.250;2022-09-25T14:12:03;5.60;;;2.83;;
15049;SDS011;7622;42.724;23.250;2022-09-25T14:14:38;2.80;;;2.00;;
15049;SDS011;7622;42.724;23.250;2022-09-25T14:17:16;1.97;;;1.87;;
15049;SDS011;7622;42.724;23.250;2022-09-25T14:19:45;2.20;;;2.00;;
15049;SDS011;7622;42.724;23.250;2022-09-25T14:22:17;2.00;;;1.90;;
15049;SDS011;7622;42.724;23.250;2022-09-25T14:24:48;5.10;;;2.43;;
15049;SDS011;7622;42.724;23.250;2022-09-25T14:27:20;4.23;;;2.27;;
15049;SDS011;7622;42.724;23.250;2022-09-25T14:29:48;3.53;;;2.10;;
15049;SDS011;7622;42.724;23.250;2022-09-25T14:32:17;7.40;;;2.20;;
15049;SDS011;7622;42.724;23.250;2022-09-25T14:34:58;2.13;;;2.00;;
15049;SDS011;7622;42.724;23.250;2022-09-25T14:37:40;2.40;;;2.20;;
15049;SDS011;7622;42.724;23.250;2022-09-25T14:40:20;3.23;;;1.90;;
15049;SDS011;7622;42.724;23.250;2022-09-25T14:43:10;2.30;;;2.20;;
15049;SDS011;7622;42.724;23.250;2022-09-25T14:45:57;3.83;;;2.00;;
15049;SDS011;7622;42.724;23.250;2022-09-25T14:48:27;5.77;;;2.30;;
15049;SDS011;7622;42.724;23.250;2022-09-25T14:51:01;5.00;;;1.87;;
15049;SDS011;7622;42.724;23.250;2022-09-25T14:53:32;2.90;;;2.00;;
15049;SDS011;7622;42.724;23.250;2022-09-25T14:56:03;3.33;;;2.23;;
15049;SDS011;7622;42.724;23.250;2022-09-25T14:58:36;3.27;;;2.17;;
15049;SDS011;7622;42.724;23.250;2022-09-25T15:01:09;3.67;;;2.07;;
15049;SDS011;7622;42.724;23.250;2022-09-25T15:03:42;4.93;;;2.57;;
15049;SDS011;7622;42.724;23.250;2022-09-25T15:06:21;1.90;;;1.80;;
15049;SDS011;7622;42.724;23.250;2022-09-25T15:08:50;2.60;;;2.00;;
15049;SDS011;7622;42.724;23.250;2022-09-25T15:11:19;2.40;;;2.30;;
15049;SDS011;7622;42.724;23.250;2022-09-25T15:13:46;3.73;;;1.90;;
15049;SDS011;7622;42.724;23.250;2022-09-25T15:16:14;2.10;;;2.00;;
15049;SDS011;7622;42.724;23.250;2022-09-25T15:19:02;4.33;;;3.03;;
15049;SDS011;7622;42.724;23.250;2022-09-25T15:21:35;3.70;;;2.00;;